createdAt,value
2018-03-27T00:00:09.012Z,20
2018-03-27T00:01:08.995Z,20
2018-03-27T00:02:09.102Z,20
2018-03-27T00:03:08.994Z,20
2018-03-27T00:04:09.003Z,20
2018-03-27T00:05:09.049Z,20
2018-03-27T00:06:09.002Z,20
2018-03-27T00:07:09.076Z,20
2018-03-27T00:08:09.040Z,20
2018-03-27T00:09:09.001Z,20
2018-03-27T00:10:08.991Z,20
2018-03-27T00:11:09.077Z,20
2018-03-27T00:12:09.000Z,20
2018-03-27T00:13:08.998Z,20
2018-03-27T00:14:09.037Z,20
2018-03-27T00:15:08.975Z,20
2018-03-27T00:16:09.002Z,20
2018-03-27T00:17:12.679Z,20
2018-03-27T00:18:09.154Z,20
2018-03-27T00:19:09.093Z,20
2018-03-27T00:20:09.089Z,20
2018-03-27T00:21:09.095Z,20
2018-03-27T00:22:09.095Z,20
2018-03-27T00:23:09.081Z,19.75
2018-03-27T00:24:09.083Z,19.75
2018-03-27T00:25:09.087Z,20
2018-03-27T00:26:09.077Z,20
2018-03-27T00:27:09.080Z,19.75
2018-03-27T00:28:09.088Z,20
2018-03-27T00:29:09.072Z,20
2018-03-27T00:30:09.072Z,19.75
2018-03-27T00:31:09.082Z,19.75
2018-03-27T00:32:09.142Z,19.75
2018-03-27T00:33:09.076Z,19.75
2018-03-27T00:34:09.082Z,19.75
2018-03-27T00:35:09.061Z,19.75
2018-03-27T00:36:09.057Z,19.75
2018-03-27T00:37:09.093Z,19.75
2018-03-27T00:38:09.091Z,19.75
2018-03-27T00:39:09.058Z,19.75
2018-03-27T00:40:09.066Z,19.75
2018-03-27T00:41:09.313Z,19.75
2018-03-27T00:42:09.065Z,19.75
2018-03-27T00:43:09.043Z,19.75
2018-03-27T00:44:09.065Z,19.75
2018-03-27T00:45:09.074Z,19.75
2018-03-27T00:46:09.061Z,19.75
2018-03-27T00:47:09.068Z,19.75
2018-03-27T00:48:09.122Z,19.75
2018-03-27T00:49:09.070Z,19.75
2018-03-27T00:50:09.068Z,19.75
2018-03-27T00:51:09.080Z,19.75
2018-03-27T00:52:09.075Z,19.75
2018-03-27T00:53:09.061Z,19.75
2018-03-27T00:54:09.075Z,19.75
2018-03-27T00:55:09.055Z,19.75
2018-03-27T00:56:09.075Z,19.75
2018-03-27T00:57:09.052Z,19.75
2018-03-27T00:58:09.080Z,19.75
2018-03-27T00:59:09.049Z,19.75
2018-03-27T01:00:09.082Z,19.75
2018-03-27T01:01:09.062Z,19.75
2018-03-27T01:02:09.084Z,19.75
2018-03-27T01:03:09.102Z,19.75
2018-03-27T01:04:09.054Z,19.75
2018-03-27T01:05:09.070Z,19.75
2018-03-27T01:06:09.031Z,19.75
2018-03-27T01:07:09.059Z,19.75
2018-03-27T01:08:09.119Z,19.75
2018-03-27T01:09:09.084Z,19.75
2018-03-27T01:10:09.065Z,19.75
2018-03-27T01:11:09.067Z,19.75
2018-03-27T01:12:09.056Z,19.75
2018-03-27T01:13:09.062Z,19.75
2018-03-27T01:14:09.057Z,19.75
2018-03-27T01:15:09.076Z,19.75
2018-03-27T01:16:09.044Z,19.75
2018-03-27T01:17:09.162Z,19.75
2018-03-27T01:18:09.174Z,19.75
2018-03-27T01:19:09.049Z,19.75
2018-03-27T01:20:09.057Z,19.75
2018-03-27T01:21:09.045Z,19.75
2018-03-27T01:22:09.054Z,19.75
2018-03-27T01:23:09.060Z,19.75
2018-03-27T01:24:09.090Z,19.75
2018-03-27T01:25:09.066Z,19.75
2018-03-27T01:26:09.097Z,19.75
2018-03-27T01:27:09.084Z,19.75
2018-03-27T01:28:09.070Z,19.75
2018-03-27T01:29:09.066Z,19.75
2018-03-27T01:30:09.054Z,19.75
2018-03-27T01:31:09.053Z,19.75
2018-03-27T01:32:09.064Z,19.75
2018-03-27T01:33:09.041Z,19.75
2018-03-27T01:34:09.046Z,19.75
2018-03-27T01:35:09.057Z,19.75
2018-03-27T01:36:09.045Z,19.5
2018-03-27T01:37:09.046Z,19.75
2018-03-27T01:38:09.053Z,19.75
2018-03-27T01:39:09.123Z,19.75
2018-03-27T01:40:09.050Z,19.75
2018-03-27T01:41:09.052Z,19.75
2018-03-27T01:42:09.066Z,19.75
2018-03-27T01:43:09.058Z,19.75
2018-03-27T01:44:09.052Z,19.75
2018-03-27T01:45:09.059Z,19.75
2018-03-27T01:46:09.032Z,19.75
2018-03-27T01:47:09.061Z,19.5
2018-03-27T01:48:09.072Z,19.5
2018-03-27T01:49:09.062Z,19.5
2018-03-27T01:50:09.064Z,19.5
2018-03-27T01:51:09.037Z,19.5
2018-03-27T01:52:09.044Z,19.5
2018-03-27T01:53:09.046Z,19.5
2018-03-27T01:54:09.059Z,19.5
2018-03-27T01:55:08.873Z,19.5
2018-03-27T01:56:09.053Z,19.5
2018-03-27T01:57:09.033Z,19.5
2018-03-27T01:58:09.038Z,19.5
2018-03-27T01:59:09.076Z,19.5
2018-03-27T02:00:09.028Z,19.5
2018-03-27T02:01:09.055Z,19.5
2018-03-27T02:02:09.049Z,19.5
2018-03-27T02:03:09.056Z,19.5
2018-03-27T02:04:09.123Z,19.5
2018-03-27T02:05:09.221Z,19.5
2018-03-27T02:06:09.042Z,19.5
2018-03-27T02:07:09.043Z,19.5
2018-03-27T02:08:09.080Z,19.5
2018-03-27T02:09:09.119Z,19.5
2018-03-27T02:10:09.040Z,19.5
2018-03-27T02:11:09.037Z,19.5
2018-03-27T02:12:09.062Z,19.5
2018-03-27T02:13:09.109Z,19.5
2018-03-27T02:14:09.041Z,19.5
2018-03-27T02:15:09.036Z,19.5
2018-03-27T02:16:09.038Z,19.5
2018-03-27T02:17:09.039Z,19.5
2018-03-27T02:18:09.042Z,19.5
2018-03-27T02:19:09.054Z,19.5
2018-03-27T02:20:09.053Z,19.5
2018-03-27T02:21:09.036Z,19.5
2018-03-27T02:22:09.026Z,19.5
2018-03-27T02:23:09.038Z,19.5
2018-03-27T02:24:09.043Z,19.5
2018-03-27T02:25:09.043Z,19.5
2018-03-27T02:26:09.041Z,19.5
2018-03-27T02:27:09.028Z,19.5
2018-03-27T02:28:09.037Z,19.5
2018-03-27T02:29:09.064Z,19.5
2018-03-27T02:30:09.058Z,19.5
2018-03-27T02:31:09.047Z,19.5
2018-03-27T02:32:09.055Z,19.5
2018-03-27T02:33:09.025Z,19.5
2018-03-27T02:34:09.059Z,19.5
2018-03-27T02:35:09.067Z,19.5
2018-03-27T02:36:09.142Z,19.5
2018-03-27T02:37:09.083Z,19.5
2018-03-27T02:38:09.036Z,19.5
2018-03-27T02:39:09.075Z,19.5
2018-03-27T02:40:09.078Z,19.5
2018-03-27T02:41:09.048Z,19.5
2018-03-27T02:42:09.023Z,19.5
2018-03-27T02:43:09.020Z,19.5
2018-03-27T02:44:09.030Z,19.5
2018-03-27T02:45:09.063Z,19.5
2018-03-27T02:46:09.101Z,19.5
2018-03-27T02:47:09.050Z,19.5
2018-03-27T02:48:09.068Z,19.5
2018-03-27T02:49:09.038Z,19.5
2018-03-27T02:50:09.064Z,19.5
2018-03-27T02:51:09.027Z,19.5
2018-03-27T02:52:09.056Z,19.5
2018-03-27T02:53:09.037Z,19.5
2018-03-27T02:54:09.023Z,19.5
2018-03-27T02:55:09.036Z,19.5
2018-03-27T02:56:09.042Z,19.5
2018-03-27T02:57:09.028Z,19.5
2018-03-27T02:58:09.029Z,19.5
2018-03-27T02:59:09.048Z,19.5
2018-03-27T03:00:09.070Z,19.5
2018-03-27T03:01:09.020Z,19.5
2018-03-27T03:02:09.048Z,19.5
2018-03-27T03:03:09.039Z,19.5
2018-03-27T03:04:09.049Z,19.5
2018-03-27T03:05:09.062Z,19.5
2018-03-27T03:06:09.033Z,19.5
2018-03-27T03:07:09.032Z,19.5
2018-03-27T03:08:09.004Z,19.5
2018-03-27T03:09:09.057Z,19.5
2018-03-27T03:10:09.105Z,19.5
2018-03-27T03:11:09.020Z,19.5
2018-03-27T03:12:09.019Z,19.5
2018-03-27T03:13:09.007Z,19.5
2018-03-27T03:14:09.029Z,19.5
2018-03-27T03:15:09.009Z,19.25
2018-03-27T03:16:09.003Z,19.25
2018-03-27T03:17:09.014Z,19.5
2018-03-27T03:18:09.120Z,19.25
2018-03-27T03:19:09.295Z,19.25
2018-03-27T03:20:09.040Z,19.5
2018-03-27T03:21:09.014Z,19.25
2018-03-27T03:22:09.141Z,19.5
2018-03-27T03:23:09.002Z,19.5
2018-03-27T03:24:09.004Z,19.25
2018-03-27T03:25:09.285Z,19.25
2018-03-27T03:26:09.017Z,19.25
2018-03-27T03:27:09.033Z,19.25
2018-03-27T03:28:09.025Z,19.25
2018-03-27T03:29:09.037Z,19.5
2018-03-27T03:30:09.299Z,19.25
2018-03-27T03:31:09.018Z,19.25
2018-03-27T03:32:09.005Z,19.25
2018-03-27T03:33:09.009Z,19.25
2018-03-27T03:34:08.997Z,19.25
2018-03-27T03:35:09.053Z,19.25
2018-03-27T03:36:09.018Z,19.25
2018-03-27T03:37:09.005Z,19.25
2018-03-27T03:38:09.028Z,19.25
2018-03-27T03:39:09.015Z,19.25
2018-03-27T03:40:09.004Z,19.25
2018-03-27T03:41:09.053Z,19.25
2018-03-27T03:42:09.012Z,19.25
2018-03-27T03:43:08.992Z,19.25
2018-03-27T03:44:09.013Z,19.25
2018-03-27T03:45:09.038Z,19.25
2018-03-27T03:46:09.030Z,19.25
2018-03-27T03:47:09.009Z,19.25
2018-03-27T03:48:09.016Z,19.25
2018-03-27T03:49:09.007Z,19.25
2018-03-27T03:50:09.003Z,19.25
2018-03-27T03:51:09.012Z,19.25
2018-03-27T03:52:09.008Z,19.25
2018-03-27T03:53:09.210Z,19.25
2018-03-27T03:54:09.010Z,19.25
2018-03-27T03:55:09.020Z,19.25
2018-03-27T03:56:09.001Z,19.25
2018-03-27T03:57:08.996Z,19.25
2018-03-27T03:58:08.999Z,19.25
2018-03-27T03:59:09.004Z,19.25
2018-03-27T04:00:09.017Z,19.25
2018-03-27T04:01:09.005Z,19.25
2018-03-27T04:02:09.019Z,19.25
2018-03-27T04:03:09.002Z,19.25
2018-03-27T04:04:08.988Z,19.25
2018-03-27T04:05:09.023Z,19.25
2018-03-27T04:06:08.990Z,19.25
2018-03-27T04:07:08.994Z,19.25
2018-03-27T04:08:08.999Z,19.25
2018-03-27T04:09:09.047Z,19.25
2018-03-27T04:10:09.022Z,19.25
2018-03-27T04:11:09.067Z,19.25
2018-03-27T04:12:08.984Z,19.25
2018-03-27T04:13:09.000Z,19.25
2018-03-27T04:14:09.020Z,19.25
2018-03-27T04:15:09.049Z,19.25
2018-03-27T04:16:09.007Z,19.25
2018-03-27T04:17:08.992Z,19.25
2018-03-27T04:18:08.994Z,19.25
2018-03-27T04:19:08.987Z,19.25
2018-03-27T04:20:09.016Z,19.25
2018-03-27T04:21:09.021Z,19.25
2018-03-27T04:22:09.010Z,19.25
2018-03-27T04:23:09.024Z,19.25
2018-03-27T04:24:09.005Z,19.25
2018-03-27T04:25:09.022Z,19.25
2018-03-27T04:26:09.252Z,19.5
2018-03-27T04:27:09.005Z,19.5
2018-03-27T04:28:09.002Z,19.5
2018-03-27T04:29:08.994Z,19.5
2018-03-27T04:30:09.039Z,19.5
2018-03-27T04:31:09.042Z,19.5
2018-03-27T04:32:09.011Z,19.5
2018-03-27T04:33:09.004Z,19.5
2018-03-27T04:34:08.990Z,19.5
2018-03-27T04:35:08.998Z,19.5
2018-03-27T04:36:08.982Z,19.5
2018-03-27T04:37:08.969Z,19.5
2018-03-27T04:38:08.983Z,19.5
2018-03-27T04:39:08.978Z,19.5
2018-03-27T04:40:08.993Z,19.5
2018-03-27T04:41:08.991Z,19.5
2018-03-27T04:42:09.037Z,19.5
2018-03-27T04:43:08.937Z,19.5
2018-03-27T04:44:08.990Z,19.5
2018-03-27T04:45:08.995Z,19.75
2018-03-27T04:46:08.983Z,19.75
2018-03-27T04:47:08.997Z,19.75
2018-03-27T04:48:09.006Z,19.75
2018-03-27T04:49:08.977Z,19.75
2018-03-27T04:50:09.011Z,19.75
2018-03-27T04:51:08.984Z,19.75
2018-03-27T04:52:09.036Z,19.75
2018-03-27T04:53:08.992Z,19.75
2018-03-27T04:54:08.990Z,19.75
2018-03-27T04:55:09.024Z,19.75
2018-03-27T04:56:08.973Z,19.75
2018-03-27T04:57:08.974Z,19.75
2018-03-27T04:58:08.980Z,19.75
2018-03-27T04:59:08.983Z,19.75
2018-03-27T05:00:08.989Z,19.75
2018-03-27T05:01:08.991Z,19.75
2018-03-27T05:02:08.996Z,19.75
2018-03-27T05:03:08.985Z,19.75
2018-03-27T05:04:09.002Z,19.75
2018-03-27T05:05:08.985Z,19.75
2018-03-27T05:06:08.990Z,20
2018-03-27T05:07:09.043Z,20
2018-03-27T05:08:08.991Z,20
2018-03-27T05:09:08.978Z,20
2018-03-27T05:10:08.988Z,20
2018-03-27T05:11:09.012Z,20
2018-03-27T05:12:08.975Z,20
2018-03-27T05:13:09.198Z,20
2018-03-27T05:14:08.978Z,20
2018-03-27T05:15:09.015Z,20
2018-03-27T05:16:08.997Z,20
2018-03-27T05:17:09.013Z,20
2018-03-27T05:18:08.982Z,20
2018-03-27T05:19:09.097Z,20
2018-03-27T05:20:09.067Z,20
2018-03-27T05:21:09.013Z,20
2018-03-27T05:22:08.986Z,20
2018-03-27T05:23:09.003Z,20
2018-03-27T05:24:09.035Z,20
2018-03-27T05:25:08.970Z,20
2018-03-27T05:26:09.010Z,20
2018-03-27T05:27:08.985Z,20.25
2018-03-27T05:28:09.000Z,20
2018-03-27T05:29:09.000Z,20.25
2018-03-27T05:30:08.979Z,20.25
2018-03-27T05:31:09.029Z,20.25
2018-03-27T05:32:08.994Z,20.25
2018-03-27T05:33:08.986Z,20.25
2018-03-27T05:34:08.975Z,20.25
2018-03-27T05:35:08.990Z,20.25
2018-03-27T05:36:08.968Z,20.25
2018-03-27T05:37:08.985Z,20.25
2018-03-27T05:38:08.984Z,20.25
2018-03-27T05:39:08.994Z,20.25
2018-03-27T05:40:09.001Z,20.25
2018-03-27T05:41:08.977Z,20.25
2018-03-27T05:42:09.050Z,20.25
2018-03-27T05:43:08.984Z,20.25
2018-03-27T05:44:09.032Z,20.25
2018-03-27T05:45:09.023Z,20.25
2018-03-27T05:46:08.970Z,20.25
2018-03-27T05:47:09.028Z,20.25
2018-03-27T05:48:09.017Z,20.25
2018-03-27T05:49:08.976Z,20.25
2018-03-27T05:50:08.987Z,20.25
2018-03-27T05:51:09.026Z,20.25
2018-03-27T05:52:08.810Z,20.25
2018-03-27T05:53:08.969Z,20.25
2018-03-27T05:54:08.967Z,20.25
2018-03-27T05:55:08.988Z,20.25
2018-03-27T05:56:09.119Z,20.25
2018-03-27T05:57:08.971Z,20.25
2018-03-27T05:58:08.969Z,20.25
2018-03-27T05:59:08.969Z,20.25
2018-03-27T06:00:08.951Z,20.25
2018-03-27T06:01:08.977Z,20.25
2018-03-27T06:02:08.962Z,20.25
2018-03-27T06:03:08.979Z,20.25
2018-03-27T06:04:08.964Z,20.25
2018-03-27T06:05:09.166Z,20.25
2018-03-27T06:06:08.957Z,20.5
2018-03-27T06:07:08.943Z,20.25
2018-03-27T06:08:08.969Z,20.25
2018-03-27T06:09:08.972Z,20.5
2018-03-27T06:10:08.950Z,20.25
2018-03-27T06:11:08.957Z,20.5
2018-03-27T06:12:08.954Z,20.5
2018-03-27T06:13:08.994Z,20.25
2018-03-27T06:14:09.020Z,20.5
2018-03-27T06:15:08.963Z,20.5
2018-03-27T06:16:09.000Z,20.5
2018-03-27T06:17:08.976Z,20.5
2018-03-27T06:18:08.961Z,20.5
2018-03-27T06:19:08.947Z,20.5
2018-03-27T06:20:08.977Z,20.5
2018-03-27T06:21:08.972Z,20.5
2018-03-27T06:22:08.957Z,20.5
2018-03-27T06:23:08.961Z,20.5
2018-03-27T06:24:08.953Z,20.5
2018-03-27T06:25:08.963Z,20.5
2018-03-27T06:26:08.971Z,20.5
2018-03-27T06:27:08.963Z,20.5
2018-03-27T06:28:08.956Z,20.5
2018-03-27T06:29:08.982Z,20.5
2018-03-27T06:30:08.965Z,20.5
2018-03-27T06:31:08.994Z,20.5
2018-03-27T06:32:08.945Z,20.5
2018-03-27T06:33:08.964Z,20.5
2018-03-27T06:34:08.951Z,20.5
2018-03-27T06:35:09.029Z,20.5
2018-03-27T06:36:08.949Z,20.5
2018-03-27T06:37:08.958Z,20.5
2018-03-27T06:38:08.963Z,20.5
2018-03-27T06:39:08.946Z,20.5
2018-03-27T06:40:08.948Z,20.5
2018-03-27T06:41:08.968Z,20.5
2018-03-27T06:42:09.353Z,20.5
2018-03-27T06:43:08.983Z,20.5
2018-03-27T06:44:08.943Z,20.5
2018-03-27T06:45:09.992Z,20.5
2018-03-27T06:46:08.981Z,20.5
2018-03-27T06:47:08.968Z,20.5
2018-03-27T06:48:09.007Z,20.5
2018-03-27T06:49:08.947Z,20.5
2018-03-27T06:50:08.955Z,20.5
2018-03-27T06:51:08.929Z,20.5
2018-03-27T06:52:08.938Z,20.5
2018-03-27T06:53:08.952Z,20.5
2018-03-27T06:54:08.965Z,20.5
2018-03-27T06:55:08.950Z,20.5
2018-03-27T06:56:08.974Z,20.5
2018-03-27T06:57:08.978Z,20.5
2018-03-27T06:58:08.984Z,20.5
2018-03-27T06:59:09.131Z,20.5
2018-03-27T07:00:08.964Z,20.5
2018-03-27T07:01:08.932Z,20.5
2018-03-27T07:02:08.998Z,20.5
2018-03-27T07:03:09.018Z,20.5
2018-03-27T07:04:08.969Z,20.5
2018-03-27T07:05:09.018Z,20.5
2018-03-27T07:06:09.053Z,20.5
2018-03-27T07:07:08.995Z,20.5
2018-03-27T07:08:09.025Z,20.5
2018-03-27T07:09:08.983Z,20.5
2018-03-27T07:10:09.023Z,20.5
2018-03-27T07:11:09.014Z,20.5
2018-03-27T07:12:09.017Z,20.75
2018-03-27T07:13:09.048Z,20.5
2018-03-27T07:14:09.044Z,20.5
2018-03-27T07:15:09.030Z,20.75
2018-03-27T07:16:09.068Z,20.5
2018-03-27T07:17:08.990Z,20.75
2018-03-27T07:18:09.089Z,20.75
2018-03-27T07:19:08.976Z,20.75
2018-03-27T07:20:09.071Z,20.75
2018-03-27T07:21:09.021Z,20.75
2018-03-27T07:22:08.976Z,20.75
2018-03-27T07:23:08.952Z,20.75
2018-03-27T07:24:08.952Z,20.75
2018-03-27T07:25:08.965Z,20.75
2018-03-27T07:26:08.941Z,20.75
2018-03-27T07:27:08.929Z,20.75
2018-03-27T07:28:08.943Z,20.75
2018-03-27T07:29:08.923Z,20.75
2018-03-27T07:30:08.983Z,20.75
2018-03-27T07:31:08.935Z,20.75
2018-03-27T07:32:08.985Z,20.75
2018-03-27T07:33:08.968Z,20.75
2018-03-27T07:34:08.997Z,20.75
2018-03-27T07:35:08.934Z,20.75
2018-03-27T07:36:08.929Z,20.75
2018-03-27T07:37:08.922Z,20.75
2018-03-27T07:38:08.962Z,20.75
2018-03-27T07:39:09.006Z,21
2018-03-27T07:40:09.002Z,21
2018-03-27T07:41:08.985Z,20.75
2018-03-27T07:42:08.951Z,21
2018-03-27T07:43:08.915Z,20.75
2018-03-27T07:44:08.979Z,21
2018-03-27T07:45:08.951Z,21
2018-03-27T07:46:08.929Z,21
2018-03-27T07:47:08.973Z,21
2018-03-27T07:48:08.927Z,21
2018-03-27T07:49:08.960Z,21
2018-03-27T07:50:08.961Z,21
2018-03-27T07:51:08.927Z,21
2018-03-27T07:52:08.949Z,20.75
2018-03-27T07:53:08.982Z,21
2018-03-27T07:54:08.938Z,21
2018-03-27T07:55:08.948Z,20.75
2018-03-27T07:56:08.937Z,21
2018-03-27T07:57:08.929Z,21
2018-03-27T07:58:08.931Z,21
2018-03-27T07:59:08.959Z,20.75
2018-03-27T08:00:08.926Z,21
2018-03-27T08:01:08.943Z,21
2018-03-27T08:02:08.932Z,20.75
2018-03-27T08:03:08.933Z,20.75
2018-03-27T08:04:08.923Z,20.75
2018-03-27T08:05:08.869Z,20.75
2018-03-27T08:06:08.981Z,20.75
2018-03-27T08:07:08.917Z,20.75
2018-03-27T08:08:08.929Z,20.75
2018-03-27T08:09:08.930Z,20.75
2018-03-27T08:10:08.924Z,20.75
2018-03-27T08:11:09.317Z,20.75
2018-03-27T08:12:08.979Z,20.75
2018-03-27T08:13:08.938Z,20.75
2018-03-27T08:14:08.901Z,20.75
2018-03-27T08:15:08.939Z,20.75
2018-03-27T08:16:08.927Z,20.75
2018-03-27T08:17:08.881Z,20.75
2018-03-27T08:18:08.965Z,20.75
2018-03-27T08:19:08.910Z,20.75
2018-03-27T08:20:08.940Z,20.75
2018-03-27T08:21:08.946Z,20.75
2018-03-27T08:22:08.925Z,20.75
2018-03-27T08:23:08.945Z,20.75
2018-03-27T08:24:09.481Z,21
2018-03-27T08:25:08.913Z,21
2018-03-27T08:26:08.918Z,21
2018-03-27T08:27:08.934Z,21
2018-03-27T08:28:09.000Z,21
2018-03-27T08:29:08.939Z,21
2018-03-27T08:30:08.924Z,21
2018-03-27T08:31:08.937Z,21
2018-03-27T08:32:08.922Z,21
2018-03-27T08:33:08.964Z,21
2018-03-27T08:34:08.922Z,21
2018-03-27T08:35:08.915Z,21
2018-03-27T08:36:08.905Z,21
2018-03-27T08:37:08.912Z,21
2018-03-27T08:38:08.906Z,21
2018-03-27T08:39:09.137Z,21
2018-03-27T08:40:08.952Z,21
2018-03-27T08:41:08.911Z,21
2018-03-27T08:42:09.673Z,21
2018-03-27T08:43:08.915Z,21
2018-03-27T08:44:08.912Z,21
2018-03-27T08:45:08.921Z,21
2018-03-27T08:46:12.294Z,21
2018-03-27T08:47:08.918Z,21
2018-03-27T08:48:09.025Z,21
2018-03-27T08:49:08.908Z,21
2018-03-27T08:50:08.957Z,21
2018-03-27T08:51:08.915Z,21
2018-03-27T08:52:12.497Z,21
2018-03-27T08:53:08.910Z,21.25
2018-03-27T08:54:09.053Z,21.25
2018-03-27T08:55:08.950Z,21.25
2018-03-27T08:56:09.163Z,21.25
2018-03-27T08:57:08.911Z,21.25
2018-03-27T08:58:08.935Z,21
2018-03-27T08:59:08.949Z,21
2018-03-27T09:00:08.910Z,21
2018-03-27T09:01:08.901Z,21
2018-03-27T09:02:08.922Z,21
2018-03-27T09:03:08.910Z,21
2018-03-27T09:04:08.906Z,21
2018-03-27T09:05:08.914Z,21
2018-03-27T09:06:08.896Z,21
2018-03-27T09:07:08.965Z,21
2018-03-27T09:08:08.890Z,21
2018-03-27T09:09:09.010Z,21
2018-03-27T09:10:08.899Z,21
2018-03-27T09:11:08.900Z,21
2018-03-27T09:12:09.051Z,21
2018-03-27T09:13:09.198Z,21
2018-03-27T09:14:08.912Z,21
2018-03-27T09:15:09.022Z,21
2018-03-27T09:16:09.077Z,21
2018-03-27T09:17:08.914Z,21
2018-03-27T09:18:08.906Z,21
2018-03-27T09:19:08.957Z,21
2018-03-27T09:20:08.905Z,21
2018-03-27T09:21:09.018Z,21
2018-03-27T09:22:09.009Z,21
2018-03-27T09:23:08.892Z,21
2018-03-27T09:24:08.945Z,21
2018-03-27T09:25:08.915Z,21
2018-03-27T09:26:08.912Z,21
2018-03-27T09:27:08.895Z,21
2018-03-27T09:28:08.914Z,21
2018-03-27T09:29:08.905Z,21
2018-03-27T09:30:08.897Z,21
2018-03-27T09:31:08.958Z,21
2018-03-27T09:32:08.914Z,21
2018-03-27T09:33:08.918Z,21
2018-03-27T09:34:08.902Z,21
2018-03-27T09:35:08.894Z,21
2018-03-27T09:36:08.896Z,21
2018-03-27T09:37:08.913Z,21
2018-03-27T09:38:08.910Z,21
2018-03-27T09:39:09.097Z,21
2018-03-27T09:40:08.892Z,21
2018-03-27T09:41:08.909Z,21
2018-03-27T09:42:08.947Z,21
2018-03-27T09:43:08.904Z,21
2018-03-27T09:44:08.895Z,21
2018-03-27T09:45:08.889Z,21
2018-03-27T09:46:08.895Z,21
2018-03-27T09:47:08.893Z,21
2018-03-27T09:48:09.022Z,21
2018-03-27T09:49:08.971Z,21
2018-03-27T09:50:08.900Z,21
2018-03-27T09:51:08.933Z,21
2018-03-27T09:52:08.924Z,21
2018-03-27T09:53:08.888Z,21
2018-03-27T09:54:08.924Z,21
2018-03-27T09:55:08.900Z,21
2018-03-27T09:56:08.888Z,21
2018-03-27T09:57:08.895Z,21
2018-03-27T09:58:08.887Z,21
2018-03-27T09:59:08.907Z,21
2018-03-27T10:00:08.900Z,21
2018-03-27T10:01:08.884Z,21
2018-03-27T10:02:08.887Z,21
2018-03-27T10:03:08.900Z,21
2018-03-27T10:04:08.897Z,21
2018-03-27T10:05:08.890Z,21
2018-03-27T10:06:08.897Z,21
2018-03-27T10:07:08.918Z,21
2018-03-27T10:08:08.890Z,21
2018-03-27T10:09:08.920Z,21
2018-03-27T10:10:08.898Z,21
2018-03-27T10:11:08.950Z,21
2018-03-27T10:12:08.921Z,21
2018-03-27T10:13:08.893Z,21
2018-03-27T10:14:08.902Z,21
2018-03-27T10:15:08.880Z,21
2018-03-27T10:16:08.884Z,21
2018-03-27T10:17:08.896Z,21
2018-03-27T10:18:08.896Z,21
2018-03-27T10:19:08.903Z,21
2018-03-27T10:20:09.032Z,21
2018-03-27T10:21:08.897Z,21
2018-03-27T10:22:09.058Z,21
2018-03-27T10:23:08.936Z,21
2018-03-27T10:24:08.901Z,21
2018-03-27T10:25:08.872Z,21
2018-03-27T10:26:08.979Z,21
2018-03-27T10:27:08.908Z,21
2018-03-27T10:28:08.883Z,21
2018-03-27T10:29:08.909Z,21
2018-03-27T10:30:08.874Z,21
2018-03-27T10:31:08.897Z,21
2018-03-27T10:32:08.905Z,21
2018-03-27T10:33:08.963Z,21
2018-03-27T10:34:08.900Z,21
2018-03-27T10:35:08.874Z,21
2018-03-27T10:36:08.885Z,21
2018-03-27T10:37:08.893Z,21
2018-03-27T10:38:08.882Z,21
2018-03-27T10:39:08.887Z,21
2018-03-27T10:40:08.894Z,21
2018-03-27T10:41:08.871Z,21
2018-03-27T10:42:08.914Z,21.25
2018-03-27T10:43:08.887Z,21
2018-03-27T10:44:08.901Z,21
2018-03-27T10:45:08.887Z,21
2018-03-27T10:46:08.928Z,21
2018-03-27T10:47:08.901Z,21.25
2018-03-27T10:48:08.871Z,21.25
2018-03-27T10:49:08.937Z,21.25
2018-03-27T10:50:11.076Z,21.25
2018-03-27T10:51:08.914Z,21.25
2018-03-27T10:51:41.300Z,21.25
2018-03-27T10:52:41.300Z,21
2018-03-27T10:53:41.277Z,21
2018-03-27T10:54:41.309Z,21
2018-03-27T10:55:41.457Z,21
2018-03-27T10:56:41.281Z,21.25
2018-03-27T10:57:41.281Z,21.25
2018-03-27T10:58:41.284Z,21
2018-03-27T10:59:41.327Z,21.25
2018-03-27T11:00:41.264Z,21.25
2018-03-27T11:01:41.271Z,21.25
2018-03-27T11:02:41.298Z,21.25
2018-03-27T11:03:41.288Z,21.25
2018-03-27T11:04:41.383Z,21.25
2018-03-27T11:05:41.294Z,21.25
2018-03-27T11:06:41.307Z,21.5
2018-03-27T11:07:41.318Z,21.25
2018-03-27T11:08:41.345Z,21.5
2018-03-27T11:09:41.329Z,21.5
2018-03-27T11:10:41.307Z,21.25
2018-03-27T11:11:41.307Z,21.5
2018-03-27T11:12:41.250Z,21.5
2018-03-27T11:13:41.476Z,21.25
2018-03-27T11:14:41.339Z,21.5
2018-03-27T11:15:41.342Z,21.75
2018-03-27T11:16:41.375Z,21.5
2018-03-27T11:17:41.283Z,21.5
2018-03-27T11:18:41.280Z,21.75
2018-03-27T11:27:32.481Z,21.5
2018-03-27T11:28:13.263Z,21.5
2018-03-27T11:29:13.497Z,21.75
2018-03-27T11:30:13.205Z,22
2018-03-27T11:31:13.221Z,22
2018-03-27T11:32:13.247Z,21.5
2018-03-27T11:33:13.217Z,21.75
2018-03-27T11:34:13.219Z,21.75
2018-03-27T11:35:13.203Z,21.5
2018-03-27T11:36:13.192Z,21.75
2018-03-27T11:37:13.233Z,21.75
2018-03-27T11:38:13.211Z,21.5
2018-03-27T11:39:13.223Z,21.75
2018-03-27T11:40:13.199Z,21.75
2018-03-27T11:41:13.201Z,21.5
2018-03-27T11:42:13.188Z,21.75
2018-03-27T11:43:13.233Z,21.75
2018-03-27T11:44:13.195Z,21.5
2018-03-27T11:45:13.210Z,21.75
2018-03-27T11:46:13.217Z,21.75
2018-03-27T11:47:13.192Z,21.5
2018-03-27T11:48:13.185Z,21.75
2018-03-27T11:49:13.222Z,21.75
2018-03-27T11:50:13.204Z,21.5
2018-03-27T11:51:13.212Z,21.75
2018-03-27T11:52:13.248Z,21.75
2018-03-27T11:53:13.190Z,21.5
2018-03-27T11:54:13.184Z,21.75
2018-03-27T11:55:13.238Z,21.75
2018-03-27T11:56:13.219Z,21.5
2018-03-27T11:57:13.205Z,21.75
2018-03-27T11:58:13.249Z,21.75
2018-03-27T11:59:13.256Z,21.5
2018-03-27T12:00:13.208Z,21.75
2018-03-27T12:01:13.214Z,21.75
2018-03-27T12:02:13.208Z,21.5
2018-03-27T12:03:13.210Z,21.75
2018-03-27T12:04:13.187Z,21.75
2018-03-27T12:05:13.468Z,21.5
2018-03-27T12:06:13.187Z,21.75
2018-03-27T12:07:13.195Z,21.75
2018-03-27T12:08:13.198Z,21.5
2018-03-27T12:09:13.233Z,21.75
2018-03-27T12:10:13.242Z,21.75
2018-03-27T12:11:13.207Z,21.5
2018-03-27T12:12:13.172Z,21.75
2018-03-27T12:13:13.244Z,21.75
2018-03-27T12:14:13.204Z,21.5
2018-03-27T12:15:13.385Z,21.75
2018-03-27T12:16:13.215Z,21.75
2018-03-27T12:17:13.172Z,21.5
2018-03-27T12:18:13.175Z,21.75
2018-03-27T12:19:13.210Z,21.75
2018-03-27T12:20:13.211Z,21.5
2018-03-27T12:21:13.201Z,21.75
2018-03-27T12:22:13.227Z,21.75
2018-03-27T12:23:13.173Z,21.75
2018-03-27T12:24:13.188Z,21.75
2018-03-27T12:25:13.222Z,22
2018-03-27T12:26:13.209Z,21.75
2018-03-27T12:27:13.209Z,21.75
2018-03-27T12:28:13.241Z,22
2018-03-27T12:29:13.204Z,21.75
2018-03-27T12:30:13.191Z,22
2018-03-27T12:31:13.463Z,22
2018-03-27T12:32:13.212Z,21.75
2018-03-27T12:33:13.206Z,22
2018-03-27T12:34:13.207Z,22.25
2018-03-27T12:35:13.166Z,21.75
2018-03-27T12:36:13.198Z,22
2018-03-27T12:37:13.191Z,22
2018-03-27T12:38:13.206Z,21.75
2018-03-27T12:39:13.183Z,22
2018-03-27T12:40:13.199Z,22
2018-03-27T12:41:13.163Z,21.75
2018-03-27T12:42:13.365Z,22
2018-03-27T12:43:13.197Z,22
2018-03-27T12:44:13.193Z,22
2018-03-27T12:45:13.198Z,22
2018-03-27T12:46:13.219Z,22
2018-03-27T12:47:13.167Z,21.75
2018-03-27T12:48:13.171Z,22
2018-03-27T12:49:13.214Z,22
2018-03-27T12:50:13.187Z,21.75
2018-03-27T12:51:13.199Z,22
2018-03-27T12:52:13.176Z,22
2018-03-27T12:53:13.332Z,21.75
2018-03-27T12:54:13.185Z,22
2018-03-27T12:55:13.186Z,22
2018-03-27T12:56:13.241Z,21.75
2018-03-27T12:57:13.180Z,22
2018-03-27T12:58:13.202Z,22
2018-03-27T12:59:13.219Z,21.75
2018-03-27T13:00:13.182Z,21.75
2018-03-27T13:01:13.197Z,22
2018-03-27T13:02:13.179Z,21.75
2018-03-27T13:03:13.200Z,21.75
2018-03-27T13:04:13.188Z,22
2018-03-27T13:05:13.195Z,21.75
2018-03-27T13:06:13.186Z,22
2018-03-27T13:07:13.188Z,22
2018-03-27T13:08:13.197Z,21.75
2018-03-27T13:09:13.175Z,22
2018-03-27T13:10:13.211Z,22
2018-03-27T13:11:13.336Z,21.75
2018-03-27T13:12:13.301Z,21.75
2018-03-27T13:13:13.177Z,22
2018-03-27T13:14:13.225Z,21.75
2018-03-27T13:15:13.195Z,21.75
2018-03-27T13:16:13.200Z,22
2018-03-27T13:17:13.138Z,21.75
2018-03-27T13:18:13.149Z,21.75
2018-03-27T13:19:13.119Z,22
2018-03-27T13:20:13.178Z,21.5
2018-03-27T13:21:13.157Z,21.75
2018-03-27T13:22:13.201Z,22
2018-03-27T13:23:13.141Z,21.5
2018-03-27T13:24:13.133Z,21.75
2018-03-27T13:25:13.143Z,22
2018-03-27T13:26:13.144Z,21.5
2018-03-27T13:27:13.176Z,21.75
2018-03-27T13:28:13.145Z,21.75
2018-03-27T13:29:13.146Z,21.5
2018-03-27T13:30:13.362Z,21.75